sensor_id;sensor_type;location;lat;lon;timestamp;pressure;altitude;pressure_sealevel;temperature;humidity
498;BME280;39559;48.630;9.162;2023-04-05T00:01:27;97998.91;;;-3.00;100.00
498;BME280;39559;48.630;9.162;2023-04-05T00:03:56;97994.53;;;-3.09;100.00
498;BME280;39559;48.630;9.162;2023-04-05T00:06:27;97996.84;;;-3.20;100.00
498;BME280;39559;48.630;9.162;2023-04-05T00:08:56;97996.38;;;-3.00;100.00
498;BME280;39559;48.630;9.162;2023-04-05T00:11:28;97993.00;;;-2.99;100.00
498;BME280;39559;48.630;9.162;2023-04-05T00:13:57;97989.66;;;-2.98;100.00
498;BME280;39559;48.630;9.162;2023-04-05T00:16:29;97997.31;;;-2.95;100.00
498;BME280;39559;48.630;9.162;2023-04-05T00:18:56;97995.53;;;-2.99;100.00
498;BME280;39559;48.630;9.162;2023-04-05T00:21:23;97992.16;;;-3.00;100.00
498;BME280;39559;48.630;9.162;2023-04-05T00:25:29;97980.88;;;-3.14;100.00
498;BME280;39559;48.630;9.162;2023-04-05T00:27:56;97980.59;;;-3.28;100.00
498;BME280;39559;48.630;9.162;2023-04-05T00:30:23;97983.44;;;-3.13;100.00
498;BME280;39559;48.630;9.162;2023-04-05T00:32:50;97979.47;;;-3.00;100.00
498;BME280;39559;48.630;9.162;2023-04-05T00:35:17;97974.34;;;-3.01;100.00
498;BME280;39559;48.630;9.162;2023-04-05T00:37:43;97971.00;;;-2.99;100.00
498;BME280;39559;48.630;9.162;2023-04-05T00:40:10;97962.56;;;-2.98;100.00
498;BME280;39559;48.630;9.162;2023-04-05T00:42:37;97963.47;;;-2.94;100.00
498;BME280;39559;48.630;9.162;2023-04-05T00:45:04;97954.25;;;-2.89;100.00
498;BME280;39559;48.630;9.162;2023-04-05T00:49:34;97957.56;;;-2.92;100.00
498;BME280;39559;48.630;9.162;2023-04-05T00:52:05;97951.78;;;-2.84;100.00
498;BME280;39559;48.630;9.162;2023-04-05T00:54:32;97955.84;;;-2.94;100.00
498;BME280;39559;48.630;9.162;2023-04-05T00:56:59;97949.03;;;-2.95;100.00
498;BME280;39559;48.630;9.162;2023-04-05T00:59:27;97951.47;;;-3.01;100.00
498;BME280;39559;48.630;9.162;2023-04-05T01:02:31;97952.25;;;-3.04;100.00
498;BME280;39559;48.630;9.162;2023-04-05T01:05:08;97950.44;;;-3.11;100.00
498;BME280;39559;48.630;9.162;2023-04-05T01:07:47;97949.44;;;-3.19;100.00
498;BME280;39559;48.630;9.162;2023-04-05T01:10:20;97944.44;;;-3.16;100.00
498;BME280;39559;48.630;9.162;2023-04-05T01:13:32;97943.28;;;-3.32;100.00
498;BME280;39559;48.630;9.162;2023-04-05T01:15:59;97935.16;;;-3.14;100.00
498;BME280;39559;48.630;9.162;2023-04-05T01:18:27;97933.41;;;-3.15;100.00
498;BME280;39559;48.630;9.162;2023-04-05T01:21:31;97926.66;;;-3.16;100.00
498;BME280;39559;48.630;9.162;2023-04-05T01:27:21;97915.53;;;-3.21;100.00
498;BME280;39559;48.630;9.162;2023-04-05T01:30:05;97913.56;;;-3.35;100.00
498;BME280;39559;48.630;9.162;2023-04-05T01:32:41;97918.72;;;-3.32;100.00
498;BME280;39559;48.630;9.162;2023-04-05T01:37:34;97916.34;;;-3.22;100.00
498;BME280;39559;48.630;9.162;2023-04-05T01:40:02;97919.75;;;-3.23;100.00
498;BME280;39559;48.630;9.162;2023-04-05T01:42:30;97914.59;;;-3.26;100.00
498;BME280;39559;48.630;9.162;2023-04-05T01:44:58;97913.41;;;-3.44;100.00
498;BME280;39559;48.630;9.162;2023-04-05T01:47:24;97906.38;;;-3.57;100.00
498;BME280;39559;48.630;9.162;2023-04-05T01:49:52;97908.59;;;-3.74;100.00
498;BME280;39559;48.630;9.162;2023-04-05T01:52:20;97909.34;;;-3.77;100.00
498;BME280;39559;48.630;9.162;2023-04-05T01:54:47;97908.91;;;-3.57;100.00
498;BME280;39559;48.630;9.162;2023-04-05T01:57:13;97909.75;;;-3.57;100.00
498;BME280;39559;48.630;9.162;2023-04-05T02:01:39;97913.34;;;-3.47;100.00
498;BME280;39559;48.630;9.162;2023-04-05T02:04:06;97904.81;;;-3.51;100.00
498;BME280;39559;48.630;9.162;2023-04-05T02:06:33;97907.63;;;-3.79;100.00
498;BME280;39559;48.630;9.162;2023-04-05T02:09:00;97907.47;;;-3.87;100.00
498;BME280;39559;48.630;9.162;2023-04-05T02:11:27;97901.28;;;-3.98;100.00
498;BME280;39559;48.630;9.162;2023-04-05T02:13:55;97894.38;;;-4.07;100.00
498;BME280;39559;48.630;9.162;2023-04-05T02:16:22;97896.81;;;-4.10;100.00
498;BME280;39559;48.630;9.162;2023-04-05T02:18:51;97903.84;;;-3.97;100.00
498;BME280;39559;48.630;9.162;2023-04-05T02:21:23;97893.13;;;-3.85;100.00
498;BME280;39559;48.630;9.162;2023-04-05T02:25:36;97887.34;;;-3.78;100.00
498;BME280;39559;48.630;9.162;2023-04-05T02:28:03;97894.19;;;-3.74;100.00
498;BME280;39559;48.630;9.162;2023-04-05T02:30:30;97892.38;;;-3.81;100.00
498;BME280;39559;48.630;9.162;2023-04-05T02:32:58;97891.47;;;-3.83;100.00
498;BME280;39559;48.630;9.162;2023-04-05T02:35:25;97888.13;;;-3.80;100.00
498;BME280;39559;48.630;9.162;2023-04-05T02:37:53;97889.81;;;-3.81;100.00
498;BME280;39559;48.630;9.162;2023-04-05T02:40:19;97895.50;;;-3.93;100.00
498;BME280;39559;48.630;9.162;2023-04-05T02:42:47;97890.38;;;-3.96;100.00
498;BME280;39559;48.630;9.162;2023-04-05T02:45:12;97882.09;;;-3.87;100.00
498;BME280;39559;48.630;9.162;2023-04-05T02:49:36;97889.75;;;-3.86;100.00
498;BME280;39559;48.630;9.162;2023-04-05T02:52:02;97885.41;;;-3.90;100.00
498;BME280;39559;48.630;9.162;2023-04-05T02:54:28;97886.84;;;-4.02;100.00
498;BME280;39559;48.630;9.162;2023-04-05T02:56:53;97887.63;;;-4.05;100.00
498;BME280;39559;48.630;9.162;2023-04-05T02:59:22;97884.25;;;-4.04;100.00
498;BME280;39559;48.630;9.162;2023-04-05T03:01:47;97883.41;;;-4.05;100.00
498;BME280;39559;48.630;9.162;2023-04-05T03:04:13;97885.97;;;-4.03;100.00
498;BME280;39559;48.630;9.162;2023-04-05T03:06:41;97876.44;;;-4.13;100.00
498;BME280;39559;48.630;9.162;2023-04-05T03:09:10;97876.25;;;-4.22;100.00
498;BME280;39559;48.630;9.162;2023-04-05T03:13:39;97885.97;;;-4.03;100.00
498;BME280;39559;48.630;9.162;2023-04-05T03:16:05;97888.47;;;-4.05;100.00
498;BME280;39559;48.630;9.162;2023-04-05T03:18:31;97885.09;;;-4.05;100.00
498;BME280;39559;48.630;9.162;2023-04-05T03:20:57;97878.59;;;-4.32;100.00
498;BME280;39559;48.630;9.162;2023-04-05T03:23:28;97882.31;;;-4.54;100.00
498;BME280;39559;48.630;9.162;2023-04-05T03:28:24;97872.84;;;-4.61;100.00
498;BME280;39559;48.630;9.162;2023-04-05T03:30:54;97880.38;;;-4.64;100.00
498;BME280;39559;48.630;9.162;2023-04-05T03:33:20;97876.28;;;-4.59;100.00
498;BME280;39559;48.630;9.162;2023-04-05T03:37:40;97878.81;;;-4.59;100.00
498;BME280;39559;48.630;9.162;2023-04-05T03:40:06;97883.13;;;-4.55;100.00
498;BME280;39559;48.630;9.162;2023-04-05T03:42:34;97875.72;;;-4.47;100.00
498;BME280;39559;48.630;9.162;2023-04-05T03:45:04;97881.56;;;-4.50;100.00
498;BME280;39559;48.630;9.162;2023-04-05T03:47:30;97873.88;;;-4.54;100.00
498;BME280;39559;48.630;9.162;2023-04-05T03:49:57;97872.31;;;-4.48;100.00
498;BME280;39559;48.630;9.162;2023-04-05T03:52:23;97874.38;;;-4.68;100.00
498;BME280;39559;48.630;9.162;2023-04-05T03:54:48;97873.94;;;-4.86;100.00
498;BME280;39559;48.630;9.162;2023-04-05T03:57:15;97877.78;;;-4.67;100.00
498;BME280;39559;48.630;9.162;2023-04-05T04:01:42;97876.66;;;-4.78;100.00
498;BME280;39559;48.630;9.162;2023-04-05T04:04:09;97879.50;;;-5.01;100.00
498;BME280;39559;48.630;9.162;2023-04-05T04:06:34;97871.72;;;-5.09;100.00
498;BME280;39559;48.630;9.162;2023-04-05T04:09:38;97877.00;;;-4.99;100.00
498;BME280;39559;48.630;9.162;2023-04-05T04:12:24;97875.13;;;-5.07;100.00
498;BME280;39559;48.630;9.162;2023-04-05T04:14:49;97880.94;;;-5.11;100.00
498;BME280;39559;48.630;9.162;2023-04-05T04:17:35;97874.94;;;-5.14;100.00
498;BME280;39559;48.630;9.162;2023-04-05T04:20:03;97869.00;;;-5.15;100.00
498;BME280;39559;48.630;9.162;2023-04-05T04:22:42;97877.25;;;-5.22;100.00
498;BME280;39559;48.630;9.162;2023-04-05T04:25:52;97874.09;;;-5.13;100.00
498;BME280;39559;48.630;9.162;2023-04-05T04:31:41;97872.94;;;-4.93;100.00
498;BME280;39559;48.630;9.162;2023-04-05T04:34:11;97878.28;;;-4.80;100.00
498;BME280;39559;48.630;9.162;2023-04-05T04:36:39;97877.22;;;-4.90;100.00
498;BME280;39559;48.630;9.162;2023-04-05T04:39:07;97881.44;;;-4.91;100.00
498;BME280;39559;48.630;9.162;2023-04-05T04:41:52;97879.53;;;-4.99;100.00
498;BME280;39559;48.630;9.162;2023-04-05T04:44:20;97874.38;;;-5.03;100.00
498;BME280;39559;48.630;9.162;2023-04-05T04:46:52;97872.28;;;-5.19;100.00
498;BME280;39559;48.630;9.162;2023-04-05T04:49:47;97875.84;;;-5.12;100.00
498;BME280;39559;48.630;9.162;2023-04-05T04:52:13;97875.03;;;-5.10;100.00
498;BME280;39559;48.630;9.162;2023-04-05T04:54:38;97882.59;;;-5.11;100.00
498;BME280;39559;48.630;9.162;2023-04-05T04:57:06;97879.16;;;-5.13;100.00
498;BME280;39559;48.630;9.162;2023-04-05T05:00:07;97880.56;;;-5.25;100.00
498;BME280;39559;48.630;9.162;2023-04-05T05:02:40;97876.72;;;-5.42;100.00
498;BME280;39559;48.630;9.162;2023-04-05T05:05:07;97879.59;;;-5.30;100.00
498;BME280;39559;48.630;9.162;2023-04-05T05:07:34;97876.38;;;-5.24;100.00
498;BME280;39559;48.630;9.162;2023-04-05T05:10:01;97875.59;;;-5.22;100.00
498;BME280;39559;48.630;9.162;2023-04-05T05:13:49;97879.22;;;-5.12;100.00
498;BME280;39559;48.630;9.162;2023-04-05T05:16:15;97885.13;;;-5.13;100.00
498;BME280;39559;48.630;9.162;2023-04-05T05:18:42;97887.03;;;-5.03;100.00
498;BME280;39559;48.630;9.162;2023-04-05T05:21:09;97885.50;;;-4.97;100.00
498;BME280;39559;48.630;9.162;2023-04-05T05:23:35;97888.78;;;-5.02;100.00
498;BME280;39559;48.630;9.162;2023-04-05T05:26:00;97889.72;;;-4.98;100.00
498;BME280;39559;48.630;9.162;2023-04-05T05:28:26;97900.31;;;-5.13;100.00
498;BME280;39559;48.630;9.162;2023-04-05T05:30:52;97897.31;;;-5.30;100.00
498;BME280;39559;48.630;9.162;2023-04-05T05:33:17;97891.41;;;-5.30;100.00
498;BME280;39559;48.630;9.162;2023-04-05T05:37:50;97900.16;;;-5.51;100.00
498;BME280;39559;48.630;9.162;2023-04-05T05:40:18;97894.44;;;-5.42;100.00
498;BME280;39559;48.630;9.162;2023-04-05T05:42:45;97897.50;;;-5.22;100.00
498;BME280;39559;48.630;9.162;2023-04-05T05:45:13;97899.31;;;-5.18;100.00
498;BME280;39559;48.630;9.162;2023-04-05T05:47:41;97892.38;;;-5.25;100.00
498;BME280;39559;48.630;9.162;2023-04-05T05:50:08;97888.81;;;-5.00;100.00
498;BME280;39559;48.630;9.162;2023-04-05T05:52:35;97882.28;;;-4.90;100.00
498;BME280;39559;48.630;9.162;2023-04-05T05:55:01;97884.41;;;-4.72;100.00
498;BME280;39559;48.630;9.162;2023-04-05T05:57:27;97885.31;;;-4.70;100.00
498;BME280;39559;48.630;9.162;2023-04-05T06:01:54;97886.59;;;-4.51;100.00
498;BME280;39559;48.630;9.162;2023-04-05T06:04:54;97887.56;;;-4.46;100.00
498;BME280;39559;48.630;9.162;2023-04-05T06:07:19;97886.00;;;-4.41;100.00
498;BME280;39559;48.630;9.162;2023-04-05T06:09:46;97885.22;;;-4.37;100.00
498;BME280;39559;48.630;9.162;2023-04-05T06:12:15;97880.25;;;-4.34;100.00
498;BME280;39559;48.630;9.162;2023-04-05T06:14:42;97894.81;;;-4.25;100.00
498;BME280;39559;48.630;9.162;2023-04-05T06:17:08;97892.34;;;-4.20;100.00
498;BME280;39559;48.630;9.162;2023-04-05T06:19:33;97891.88;;;-4.04;100.00
498;BME280;39559;48.630;9.162;2023-04-05T06:21:59;97887.63;;;-4.05;100.00
498;BME280;39559;48.630;9.162;2023-04-05T06:25:57;97886.00;;;-3.60;100.00
498;BME280;39559;48.630;9.162;2023-04-05T06:28:23;97880.59;;;-3.33;100.00
498;BME280;39559;48.630;9.162;2023-04-05T06:30:48;97882.06;;;-2.99;100.00
498;BME280;39559;48.630;9.162;2023-04-05T06:33:14;97882.81;;;-2.54;100.00
498;BME280;39559;48.630;9.162;2023-04-05T06:35:40;97881.69;;;-2.14;100.00
498;BME280;39559;48.630;9.162;2023-04-05T06:38:06;97885.22;;;-2.04;100.00
498;BME280;39559;48.630;9.162;2023-04-05T06:40:31;97873.41;;;-1.99;100.00
498;BME280;39559;48.630;9.162;2023-04-05T06:42:57;97876.34;;;-1.71;100.00
498;BME280;39559;48.630;9.162;2023-04-05T06:45:22;97880.47;;;-1.79;100.00
498;BME280;39559;48.630;9.162;2023-04-05T06:49:58;97872.44;;;-1.41;100.00
498;BME280;39559;48.630;9.162;2023-04-05T06:52:24;97879.19;;;-1.45;100.00
498;BME280;39559;48.630;9.162;2023-04-05T06:54:49;97883.69;;;-1.21;100.00
498;BME280;39559;48.630;9.162;2023-04-05T06:57:19;97873.75;;;-0.96;100.00
498;BME280;39559;48.630;9.162;2023-04-05T06:59:45;97887.34;;;-0.94;100.00
498;BME280;39559;48.630;9.162;2023-04-05T07:02:12;97880.66;;;-0.81;100.00
498;BME280;39559;48.630;9.162;2023-04-05T07:04:38;97875.81;;;-0.52;100.00
498;BME280;39559;48.630;9.162;2023-04-05T07:07:05;97875.91;;;-0.38;100.00
498;BME280;39559;48.630;9.162;2023-04-05T07:09:31;97882.75;;;-0.32;100.00
498;BME280;39559;48.630;9.162;2023-04-05T07:14:03;97877.03;;;0.04;100.00
498;BME280;39559;48.630;9.162;2023-04-05T07:16:29;97878.00;;;0.29;100.00
498;BME280;39559;48.630;9.162;2023-04-05T07:18:56;97881.50;;;0.53;100.00
498;BME280;39559;48.630;9.162;2023-04-05T07:21:22;97876.41;;;0.65;100.00
498;BME280;39559;48.630;9.162;2023-04-05T07:23:48;97869.66;;;0.87;100.00
498;BME280;39559;48.630;9.162;2023-04-05T07:29:38;97875.66;;;0.95;94.65
498;BME280;39559;48.630;9.162;2023-04-05T07:32:10;97882.47;;;0.92;91.50
498;BME280;39559;48.630;9.162;2023-04-05T07:34:37;97876.53;;;1.18;92.17
498;BME280;39559;48.630;9.162;2023-04-05T07:38:07;97872.31;;;1.37;88.23
498;BME280;39559;48.630;9.162;2023-04-05T07:40:35;97877.41;;;1.37;86.58
498;BME280;39559;48.630;9.162;2023-04-05T07:43:01;97871.41;;;1.67;83.49
498;BME280;39559;48.630;9.162;2023-04-05T07:45:27;97872.22;;;2.04;85.64
498;BME280;39559;48.630;9.162;2023-04-05T07:47:53;97870.38;;;2.51;86.61
498;BME280;39559;48.630;9.162;2023-04-05T07:50:18;97867.72;;;2.66;79.41
498;BME280;39559;48.630;9.162;2023-04-05T07:52:45;97864.03;;;3.12;81.09
498;BME280;39559;48.630;9.162;2023-04-05T07:55:10;97866.59;;;3.09;74.76
498;BME280;39559;48.630;9.162;2023-04-05T07:57:36;97866.88;;;2.64;71.71
498;BME280;39559;48.630;9.162;2023-04-05T08:02:08;97880.94;;;3.38;74.48
498;BME280;39559;48.630;9.162;2023-04-05T08:04:34;97873.63;;;2.84;69.68
498;BME280;39559;48.630;9.162;2023-04-05T08:07:00;97880.28;;;3.13;70.22
498;BME280;39559;48.630;9.162;2023-04-05T08:09:25;97873.38;;;3.24;67.75
498;BME280;39559;48.630;9.162;2023-04-05T08:11:51;97874.91;;;3.46;68.45
498;BME280;39559;48.630;9.162;2023-04-05T08:14:17;97872.06;;;3.80;69.22
498;BME280;39559;48.630;9.162;2023-04-05T08:16:42;97873.19;;;3.45;64.52
498;BME280;39559;48.630;9.162;2023-04-05T08:19:08;97865.13;;;3.85;69.58
498;BME280;39559;48.630;9.162;2023-04-05T08:21:34;97865.06;;;3.93;63.67
498;BME280;39559;48.630;9.162;2023-04-05T08:26:11;97863.38;;;3.91;60.35
498;BME280;39559;48.630;9.162;2023-04-05T08:28:36;97858.09;;;4.06;58.60
498;BME280;39559;48.630;9.162;2023-04-05T08:31:02;97870.44;;;3.65;60.71
498;BME280;39559;48.630;9.162;2023-04-05T08:33:28;97864.31;;;3.82;57.43
498;BME280;39559;48.630;9.162;2023-04-05T08:35:56;97866.00;;;3.88;59.23
498;BME280;39559;48.630;9.162;2023-04-05T08:38:22;97870.41;;;3.73;62.81
498;BME280;39559;48.630;9.162;2023-04-05T08:40:48;97866.31;;;4.36;63.98
498;BME280;39559;48.630;9.162;2023-04-05T08:43:36;97873.22;;;3.44;58.48
498;BME280;39559;48.630;9.162;2023-04-05T08:46:07;97868.28;;;4.12;60.15
498;BME280;39559;48.630;9.162;2023-04-05T08:50:13;97862.78;;;4.46;54.50
498;BME280;39559;48.630;9.162;2023-04-05T08:52:39;97868.97;;;4.30;55.78
498;BME280;39559;48.630;9.162;2023-04-05T08:55:07;97866.53;;;4.19;53.96
498;BME280;39559;48.630;9.162;2023-04-05T08:57:36;97874.94;;;4.32;57.60
498;BME280;39559;48.630;9.162;2023-04-05T09:00:07;97869.34;;;4.69;56.55
498;BME280;39559;48.630;9.162;2023-04-05T09:02:33;97869.88;;;4.94;55.36
498;BME280;39559;48.630;9.162;2023-04-05T09:05:01;97874.44;;;4.75;52.06
498;BME280;39559;48.630;9.162;2023-04-05T09:07:29;97860.91;;;5.21;52.04
498;BME280;39559;48.630;9.162;2023-04-05T09:09:56;97865.56;;;4.94;50.72
498;BME280;39559;48.630;9.162;2023-04-05T09:14:16;97861.72;;;5.23;52.09
498;BME280;39559;48.630;9.162;2023-04-05T09:16:43;97868.69;;;5.16;50.60
498;BME280;39559;48.630;9.162;2023-04-05T09:19:13;97857.47;;;5.21;53.15
498;BME280;39559;48.630;9.162;2023-04-05T09:25:01;97865.69;;;4.87;54.94
498;BME280;39559;48.630;9.162;2023-04-05T09:27:27;97866.88;;;5.23;50.11
498;BME280;39559;48.630;9.162;2023-04-05T09:29:52;97853.72;;;5.40;50.88
498;BME280;39559;48.630;9.162;2023-04-05T09:32:18;97857.03;;;5.48;47.94
498;BME280;39559;48.630;9.162;2023-04-05T09:34:46;97861.88;;;5.14;54.39
498;BME280;39559;48.630;9.162;2023-04-05T09:38:45;97860.16;;;5.13;47.36
498;BME280;39559;48.630;9.162;2023-04-05T09:41:14;97868.22;;;4.90;49.26
498;BME280;39559;48.630;9.162;2023-04-05T09:43:42;97867.50;;;5.37;50.45
498;BME280;39559;48.630;9.162;2023-04-05T09:46:35;97861.19;;;5.57;48.81
498;BME280;39559;48.630;9.162;2023-04-05T09:49:07;97856.44;;;5.84;47.92
498;BME280;39559;48.630;9.162;2023-04-05T09:51:40;97857.44;;;6.25;47.44
498;BME280;39559;48.630;9.162;2023-04-05T09:54:08;97862.22;;;5.98;48.21
498;BME280;39559;48.630;9.162;2023-04-05T09:56:39;97854.53;;;5.95;49.59
498;BME280;39559;48.630;9.162;2023-04-05T09:59:06;97847.09;;;6.26;48.32
498;BME280;39559;48.630;9.162;2023-04-05T10:02:24;97850.78;;;6.57;47.45
498;BME280;39559;48.630;9.162;2023-04-05T10:04:50;97837.75;;;6.64;48.12
498;BME280;39559;48.630;9.162;2023-04-05T10:07:18;97844.75;;;6.97;48.09
498;BME280;39559;48.630;9.162;2023-04-05T10:09:45;97837.63;;;7.08;47.98
498;BME280;39559;48.630;9.162;2023-04-05T10:12:32;97837.53;;;6.73;46.94
498;BME280;39559;48.630;9.162;2023-04-05T10:15:02;97831.44;;;6.36;43.12
498;BME280;39559;48.630;9.162;2023-04-05T10:20:15;97841.19;;;6.63;44.12
498;BME280;39559;48.630;9.162;2023-04-05T10:26:44;97830.03;;;6.63;47.35
498;BME280;39559;48.630;9.162;2023-04-05T10:29:16;97827.28;;;6.70;45.40
498;BME280;39559;48.630;9.162;2023-04-05T10:32:03;97830.47;;;5.94;43.38
498;BME280;39559;48.630;9.162;2023-04-05T10:34:44;97829.44;;;6.06;44.62
498;BME280;39559;48.630;9.162;2023-04-05T10:39:54;97820.44;;;7.07;46.33
498;BME280;39559;48.630;9.162;2023-04-05T10:42:36;97822.97;;;7.46;46.63
498;BME280;39559;48.630;9.162;2023-04-05T10:45:05;97820.28;;;7.83;45.89
498;BME280;39559;48.630;9.162;2023-04-05T10:47:40;97820.44;;;7.77;45.74
498;BME280;39559;48.630;9.162;2023-04-05T10:50:24;97815.19;;;7.80;42.04
498;BME280;39559;48.630;9.162;2023-04-05T10:52:52;97814.25;;;7.14;42.57
498;BME280;39559;48.630;9.162;2023-04-05T10:55:18;97812.94;;;6.57;45.22
498;BME280;39559;48.630;9.162;2023-04-05T10:57:46;97812.88;;;6.99;43.72
498;BME280;39559;48.630;9.162;2023-04-05T11:00:14;97810.81;;;7.14;44.07
498;BME280;39559;48.630;9.162;2023-04-05T11:02:43;97810.72;;;7.17;46.36
498;BME280;39559;48.630;9.162;2023-04-05T11:05:32;97818.97;;;7.33;43.35
498;BME280;39559;48.630;9.162;2023-04-05T11:08:06;97810.91;;;7.79;42.64
498;BME280;39559;48.630;9.162;2023-04-05T11:10:34;97797.59;;;8.26;40.45
498;BME280;39559;48.630;9.162;2023-04-05T11:14:33;97798.53;;;7.91;42.76
498;BME280;39559;48.630;9.162;2023-04-05T11:17:00;97800.28;;;7.57;42.31
498;BME280;39559;48.630;9.162;2023-04-05T11:22:10;97795.06;;;7.24;42.08
498;BME280;39559;48.630;9.162;2023-04-05T11:24:49;97787.34;;;7.90;46.04
498;BME280;39559;48.630;9.162;2023-04-05T11:27:27;97785.66;;;8.52;42.88
498;BME280;39559;48.630;9.162;2023-04-05T11:29:54;97773.22;;;9.19;41.83
498;BME280;39559;48.630;9.162;2023-04-05T11:35:33;97779.63;;;8.51;40.27
498;BME280;39559;48.630;9.162;2023-04-05T11:38:25;97773.69;;;8.48;40.01
498;BME280;39559;48.630;9.162;2023-04-05T11:41:05;97774.91;;;8.64;40.90
498;BME280;39559;48.630;9.162;2023-04-05T11:43:32;97761.44;;;9.36;43.04
498;BME280;39559;48.630;9.162;2023-04-05T11:46:01;97764.84;;;9.88;39.00
498;BME280;39559;48.630;9.162;2023-04-05T11:48:29;97761.56;;;10.55;38.79
498;BME280;39559;48.630;9.162;2023-04-05T11:50:56;97754.56;;;10.80;37.23
498;BME280;39559;48.630;9.162;2023-04-05T11:53:23;97759.59;;;9.39;37.97
498;BME280;39559;48.630;9.162;2023-04-05T11:55:51;97751.56;;;9.47;37.30
498;BME280;39559;48.630;9.162;2023-04-05T11:58:21;97758.97;;;9.83;39.31
498;BME280;39559;48.630;9.162;2023-04-05T12:02:23;97754.47;;;10.37;37.57
498;BME280;39559;48.630;9.162;2023-04-05T12:04:54;97746.72;;;11.24;37.66
498;BME280;39559;48.630;9.162;2023-04-05T12:07:27;97741.16;;;11.33;36.28
498;BME280;39559;48.630;9.162;2023-04-05T12:10:05;97737.97;;;13.02;36.64
498;BME280;39559;48.630;9.162;2023-04-05T12:12:40;97737.75;;;12.51;34.26
498;BME280;39559;48.630;9.162;2023-04-05T12:15:08;97743.09;;;11.89;32.31
498;BME280;39559;48.630;9.162;2023-04-05T12:17:39;97746.78;;;10.80;34.51
498;BME280;39559;48.630;9.162;2023-04-05T12:20:05;97744.13;;;10.59;37.51
498;BME280;39559;48.630;9.162;2023-04-05T12:22:31;97742.84;;;11.34;33.29
498;BME280;39559;48.630;9.162;2023-04-05T12:26:26;97727.69;;;11.85;35.56
498;BME280;39559;48.630;9.162;2023-04-05T12:28:57;97726.16;;;11.81;36.06
498;BME280;39559;48.630;9.162;2023-04-05T12:31:42;97732.44;;;10.69;31.74
498;BME280;39559;48.630;9.162;2023-04-05T12:34:09;97732.47;;;10.22;33.20
498;BME280;39559;48.630;9.162;2023-04-05T12:36:37;97723.09;;;11.50;33.58
498;BME280;39559;48.630;9.162;2023-04-05T12:39:08;97719.78;;;11.47;33.75
498;BME280;39559;48.630;9.162;2023-04-05T12:41:34;97707.91;;;12.20;33.43
498;BME280;39559;48.630;9.162;2023-04-05T12:44:07;97712.41;;;11.98;32.68
498;BME280;39559;48.630;9.162;2023-04-05T12:46:41;97711.78;;;12.86;31.17
498;BME280;39559;48.630;9.162;2023-04-05T12:50:27;97709.94;;;11.74;32.21
498;BME280;39559;48.630;9.162;2023-04-05T12:53:04;97702.41;;;12.64;33.68
498;BME280;39559;48.630;9.162;2023-04-05T12:55:30;97704.03;;;13.38;32.14
498;BME280;39559;48.630;9.162;2023-04-05T12:58:00;97701.19;;;13.60;32.05
498;BME280;39559;48.630;9.162;2023-04-05T13:00:27;97692.31;;;13.47;32.08
498;BME280;39559;48.630;9.162;2023-04-05T13:02:54;97699.38;;;10.95;35.07
498;BME280;39559;48.630;9.162;2023-04-05T13:05:25;97708.25;;;11.73;35.35
498;BME280;39559;48.630;9.162;2023-04-05T13:07:51;97706.38;;;7.90;35.54
498;BME280;39559;48.630;9.162;2023-04-05T13:10:18;97702.06;;;9.30;37.06
498;BME280;39559;48.630;9.162;2023-04-05T13:14:25;97685.50;;;11.58;34.35
498;BME280;39559;48.630;9.162;2023-04-05T13:16:50;97687.84;;;11.64;36.23
498;BME280;39559;48.630;9.162;2023-04-05T13:19:16;97685.22;;;11.84;33.79
498;BME280;39559;48.630;9.162;2023-04-05T13:21:41;97677.31;;;12.25;32.07
498;BME280;39559;48.630;9.162;2023-04-05T13:24:07;97675.13;;;11.37;34.46
498;BME280;39559;48.630;9.162;2023-04-05T13:26:33;97669.13;;;11.56;34.83
498;BME280;39559;48.630;9.162;2023-04-05T13:28:58;97681.38;;;10.24;33.46
498;BME280;39559;48.630;9.162;2023-04-05T13:31:24;97680.81;;;10.40;33.99
498;BME280;39559;48.630;9.162;2023-04-05T13:33:49;97672.13;;;11.05;33.52
498;BME280;39559;48.630;9.162;2023-04-05T13:38:24;97670.28;;;11.07;36.51
498;BME280;39559;48.630;9.162;2023-04-05T13:40:50;97669.38;;;11.70;32.83
498;BME280;39559;48.630;9.162;2023-04-05T13:43:15;97665.88;;;11.50;35.72
498;BME280;39559;48.630;9.162;2023-04-05T13:45:41;97656.78;;;12.19;31.25
498;BME280;39559;48.630;9.162;2023-04-05T13:48:06;97655.41;;;11.52;31.19
498;BME280;39559;48.630;9.162;2023-04-05T13:50:32;97656.25;;;12.11;32.01
498;BME280;39559;48.630;9.162;2023-04-05T13:52:57;97660.81;;;11.06;33.22
498;BME280;39559;48.630;9.162;2023-04-05T13:55:23;97661.44;;;10.48;34.90
498;BME280;39559;48.630;9.162;2023-04-05T13:57:48;97662.34;;;10.24;37.06
498;BME280;39559;48.630;9.162;2023-04-05T14:02:23;97652.19;;;10.41;35.41
498;BME280;39559;48.630;9.162;2023-04-05T14:04:52;97647.69;;;11.30;33.63
498;BME280;39559;48.630;9.162;2023-04-05T14:07:19;97643.16;;;11.35;34.86
498;BME280;39559;48.630;9.162;2023-04-05T14:09:44;97635.47;;;11.92;33.69
498;BME280;39559;48.630;9.162;2023-04-05T14:12:10;97640.28;;;11.00;35.27
498;BME280;39559;48.630;9.162;2023-04-05T14:14:36;97638.81;;;10.72;33.02
498;BME280;39559;48.630;9.162;2023-04-05T14:17:02;97639.94;;;10.87;32.37
498;BME280;39559;48.630;9.162;2023-04-05T14:19:28;97640.41;;;10.54;34.38
498;BME280;39559;48.630;9.162;2023-04-05T14:21:53;97640.47;;;10.53;33.29
498;BME280;39559;48.630;9.162;2023-04-05T14:26:25;97640.03;;;9.96;37.66
498;BME280;39559;48.630;9.162;2023-04-05T14:28:52;97636.03;;;9.87;33.58
498;BME280;39559;48.630;9.162;2023-04-05T14:31:18;97634.03;;;10.17;36.24
498;BME280;39559;48.630;9.162;2023-04-05T14:33:44;97632.09;;;10.46;36.14
498;BME280;39559;48.630;9.162;2023-04-05T14:36:09;97628.78;;;10.43;36.90
498;BME280;39559;48.630;9.162;2023-04-05T14:38:35;97633.88;;;9.98;33.85
498;BME280;39559;48.630;9.162;2023-04-05T14:41:01;97626.53;;;9.15;34.47
498;BME280;39559;48.630;9.162;2023-04-05T14:43:27;97620.31;;;9.68;35.84
498;BME280;39559;48.630;9.162;2023-04-05T14:45:52;97629.63;;;9.74;34.98
498;BME280;39559;48.630;9.162;2023-04-05T14:50:20;97620.41;;;9.41;36.14
498;BME280;39559;48.630;9.162;2023-04-05T14:52:46;97614.84;;;9.99;35.63
498;BME280;39559;48.630;9.162;2023-04-05T14:55:11;97612.13;;;10.25;36.20
498;BME280;39559;48.630;9.162;2023-04-05T14:57:41;97610.53;;;9.98;33.29